Time;durP1;ratioP1;P1;durP2;ratioP2;P2;SDS_P1;SDS_P2;PMS_P1;PMS_P2;Temp;Humidity;BMP_temperature;BMP_pressure;BME280_temperature;BME280_humidity;BME280_pressure;Samples;Min_cycle;Max_cycle;Signal;HPM_P1;HPM_P2
2023/06/23 00:00:23;;;;;;;;;;;16.80;99.90;;;;;;5001935;28;19933;-92
2023/06/23 00:02:49;;;;;;;;;;;16.80;99.90;;;;;;5003111;28;19926;-89
2023/06/23 00:05:15;;;;;;;;;;;16.80;99.90;;;;;;4986330;28;19928;-90
2023/06/23 00:07:40;;;;;;;;;;;16.80;99.90;;;;;;5019534;28;19996;-90
2023/06/23 00:10:06;;;;;;;;;;;16.80;99.90;;;;;;5015641;28;19932;-89
2023/06/23 00:12:35;;;;;;;;;;;16.80;99.90;;;;;;5003258;28;20463;-89
2023/06/23 00:15:07;;;;;;;;;;;16.90;99.90;;;;;;5020511;28;19925;-93
2023/06/23 00:17:32;;;;;;;;;;;16.90;99.90;;;;;;5020925;28;19988;-91
2023/06/23 00:19:58;;;;;;;;;;;16.90;99.90;;;;;;5001234;28;19952;-92
2023/06/23 00:22:25;;;;;;;;;;;16.90;99.90;;;;;;5013967;28;19925;-90
2023/06/23 00:24:50;;;;;;;;;;;16.90;99.90;;;;;;5022973;28;19925;-90
2023/06/23 00:27:16;;;;;;;;;;;16.80;99.90;;;;;;5018768;28;20100;-91
2023/06/23 00:29:42;;;;;;;;;;;16.80;99.90;;;;;;5022353;28;20150;-89
2023/06/23 00:32:07;;;;;;;;;;;16.90;99.90;;;;;;5016472;28;19940;-91
2023/06/23 00:34:33;;;;;;;;;;;16.80;99.90;;;;;;5017467;28;20266;-91
2023/06/23 00:36:59;;;;;;;;;;;16.90;99.90;;;;;;5017060;28;19932;-91
2023/06/23 00:39:24;;;;;;;;;;;16.80;99.90;;;;;;4986762;28;19925;-90
2023/06/23 00:41:50;;;;;;;;;;;16.90;99.90;;;;;;4984663;28;19936;-89
2023/06/23 00:44:16;;;;;;;;;;;16.80;99.90;;;;;;4983559;28;19925;-90
2023/06/23 00:46:43;;;;;;;;;;;16.80;99.90;;;;;;5018249;28;19940;-91
2023/06/23 00:49:09;;;;;;;;;;;16.80;99.90;;;;;;5003810;28;19970;-91
2023/06/23 00:51:35;;;;;;;;;;;16.80;99.90;;;;;;5006352;28;19925;-92
2023/06/23 00:54:02;;;;;;;;;;;16.80;99.90;;;;;;5004327;28;19948;-89
2023/06/23 00:56:30;;;;;;;;;;;16.80;99.90;;;;;;5003004;28;19960;-92
2023/06/23 00:58:56;;;;;;;;;;;16.80;99.90;;;;;;5005372;28;20688;-91
2023/06/23 01:01:22;;;;;;;;;;;16.80;99.90;;;;;;5020407;28;19925;-90
2023/06/23 01:03:48;;;;;;;;;;;16.80;99.90;;;;;;5022656;28;19933;-90
2023/06/23 01:06:17;;;;;;;;;;;16.80;99.90;;;;;;5007034;28;19932;-91
2023/06/23 01:08:47;;;;;;;;;;;16.80;99.90;;;;;;5023165;28;19933;-91
2023/06/23 01:11:16;;;;;;;;;;;16.70;99.90;;;;;;5008280;28;19933;-92
2023/06/23 01:13:52;;;;;;;;;;;16.70;99.90;;;;;;5007887;28;19925;-91
2023/06/23 01:16:21;;;;;;;;;;;16.70;99.90;;;;;;5007651;28;19933;-92
2023/06/23 01:18:46;;;;;;;;;;;16.70;99.90;;;;;;5022547;28;19925;-92
2023/06/23 01:21:15;;;;;;;;;;;16.70;99.90;;;;;;5005577;28;19933;-92
2023/06/23 01:23:56;;;;;;;;;;;16.70;99.90;;;;;;5021128;28;19929;-91
2023/06/23 01:26:24;;;;;;;;;;;16.70;99.90;;;;;;5017380;28;19980;-92
2023/06/23 01:28:52;;;;;;;;;;;16.60;99.90;;;;;;5021548;28;20018;-92
2023/06/23 01:31:24;;;;;;;;;;;16.60;99.90;;;;;;5014649;28;19926;-92
2023/06/23 01:33:57;;;;;;;;;;;16.70;99.90;;;;;;5001849;28;20392;-91
2023/06/23 01:36:27;;;;;;;;;;;16.70;99.90;;;;;;5018985;28;19933;-92
2023/06/23 01:38:57;;;;;;;;;;;16.70;99.90;;;;;;5005873;28;19929;-92
2023/06/23 01:41:25;;;;;;;;;;;16.60;99.90;;;;;;5018419;28;19929;-91
2023/06/23 01:43:55;;;;;;;;;;;16.70;99.90;;;;;;5000348;28;20422;-92
2023/06/23 01:46:25;;;;;;;;;;;16.70;99.90;;;;;;5016168;28;20019;-92
2023/06/23 01:48:54;;;;;;;;;;;16.70;99.90;;;;;;5014779;28;19948;-92
2023/06/23 01:51:21;;;;;;;;;;;16.60;99.90;;;;;;5017018;28;20558;-91
2023/06/23 01:53:47;;;;;;;;;;;16.60;99.90;;;;;;5001796;28;19925;-92
2023/06/23 01:56:13;;;;;;;;;;;16.60;99.90;;;;;;4999175;28;19933;-92
2023/06/23 01:58:39;;;;;;;;;;;16.60;99.90;;;;;;4999503;28;19948;-93
2023/06/23 02:01:05;;;;;;;;;;;16.60;99.90;;;;;;5015738;28;19925;-92
2023/06/23 02:03:32;;;;;;;;;;;16.60;99.90;;;;;;5018818;28;19975;-92
2023/06/23 02:05:58;;;;;;;;;;;16.60;99.90;;;;;;4997365;28;19925;-92
2023/06/23 02:08:25;;;;;;;;;;;16.60;99.90;;;;;;4999773;28;19930;-91
2023/06/23 02:10:55;;;;;;;;;;;16.60;99.90;;;;;;5015071;28;21321;-91
2023/06/23 02:13:21;;;;;;;;;;;16.50;99.90;;;;;;5016691;28;20384;-92
2023/06/23 02:15:48;;;;;;;;;;;16.50;99.90;;;;;;5016957;28;19940;-91
2023/06/23 02:18:15;;;;;;;;;;;16.50;99.90;;;;;;5012710;28;19959;-91
2023/06/23 02:20:41;;;;;;;;;;;16.50;99.90;;;;;;5002867;28;20405;-92
2023/06/23 02:23:08;;;;;;;;;;;16.40;99.90;;;;;;5000103;28;19959;-90
2023/06/23 02:25:34;;;;;;;;;;;16.40;99.90;;;;;;5020456;28;19948;-92
2023/06/23 02:28:00;;;;;;;;;;;16.40;99.90;;;;;;4985135;28;19925;-91
2023/06/23 02:30:26;;;;;;;;;;;16.40;99.90;;;;;;5001208;28;19933;-91
2023/06/23 02:32:52;;;;;;;;;;;16.40;99.90;;;;;;5001885;28;20228;-92
2023/06/23 02:35:18;;;;;;;;;;;16.40;99.90;;;;;;5001987;28;19964;-92
2023/06/23 02:37:48;;;;;;;;;;;16.40;99.90;;;;;;5020129;28;19932;-92
2023/06/23 02:40:16;;;;;;;;;;;16.40;99.90;;;;;;4999327;28;19932;-92
2023/06/23 02:42:46;;;;;;;;;;;16.30;99.90;;;;;;5002426;28;19948;-92
2023/06/23 02:45:27;;;;;;;;;;;16.30;99.90;;;;;;4998837;28;19934;-91
2023/06/23 02:47:55;;;;;;;;;;;16.30;99.90;;;;;;5013945;28;21642;-92
2023/06/23 02:50:25;;;;;;;;;;;16.30;99.90;;;;;;5013591;28;19925;-91
2023/06/23 02:52:54;;;;;;;;;;;16.30;99.90;;;;;;5013464;28;19925;-91
2023/06/23 02:55:20;;;;;;;;;;;16.30;99.90;;;;;;5015756;28;19940;-92
2023/06/23 02:57:48;;;;;;;;;;;16.30;99.90;;;;;;5015021;28;19929;-91
2023/06/23 03:00:19;;;;;;;;;;;16.30;99.90;;;;;;5014982;28;19928;-91
2023/06/23 03:02:46;;;;;;;;;;;16.30;99.90;;;;;;5016560;28;21338;-90
2023/06/23 03:05:11;;;;;;;;;;;16.30;99.90;;;;;;5014922;28;20031;-91
2023/06/23 03:07:38;;;;;;;;;;;16.30;99.90;;;;;;5000853;28;19937;-91
2023/06/23 03:10:07;;;;;;;;;;;16.30;99.90;;;;;;5012225;28;19986;-92
2023/06/23 03:12:33;;;;;;;;;;;16.30;99.90;;;;;;4999945;28;20573;-90
2023/06/23 03:14:59;;;;;;;;;;;16.30;99.90;;;;;;5012955;28;19930;-91
2023/06/23 03:17:26;;;;;;;;;;;16.30;99.90;;;;;;4999849;28;19940;-92
2023/06/23 03:19:56;;;;;;;;;;;16.30;99.90;;;;;;5000075;28;20289;-91
2023/06/23 03:22:22;;;;;;;;;;;16.30;99.90;;;;;;4998556;28;19959;-89
2023/06/23 03:24:51;;;;;;;;;;;16.30;99.90;;;;;;5003271;28;19929;-91
2023/06/23 03:27:18;;;;;;;;;;;16.30;99.90;;;;;;5011650;28;19933;-91
2023/06/23 03:29:46;;;;;;;;;;;16.30;99.90;;;;;;5014534;28;19930;-91
2023/06/23 03:32:14;;;;;;;;;;;16.30;99.90;;;;;;4996517;28;19964;-90
2023/06/23 03:34:41;;;;;;;;;;;16.30;99.90;;;;;;5013511;28;19975;-90
2023/06/23 03:37:08;;;;;;;;;;;16.30;99.90;;;;;;5013296;28;19987;-90
2023/06/23 03:39:40;;;;;;;;;;;16.20;99.90;;;;;;4998532;28;19929;-89
2023/06/23 03:42:06;;;;;;;;;;;16.20;99.90;;;;;;5014078;28;20023;-92
2023/06/23 03:44:34;;;;;;;;;;;16.20;99.90;;;;;;4997252;28;19948;-91
2023/06/23 03:47:01;;;;;;;;;;;16.20;99.90;;;;;;4999690;28;19934;-90
2023/06/23 03:49:28;;;;;;;;;;;16.20;99.90;;;;;;5014956;28;19929;-91
2023/06/23 03:51:56;;;;;;;;;;;16.20;99.90;;;;;;5017854;28;19925;-91
2023/06/23 03:54:23;;;;;;;;;;;16.10;99.90;;;;;;5002739;28;19979;-91
2023/06/23 03:56:50;;;;;;;;;;;16.20;99.90;;;;;;5014554;28;19929;-92
2023/06/23 03:59:16;;;;;;;;;;;16.10;99.90;;;;;;5002479;28;19948;-91
2023/06/23 04:01:42;;;;;;;;;;;16.10;99.90;;;;;;4997931;28;19983;-92
2023/06/23 04:04:08;;;;;;;;;;;16.10;99.90;;;;;;5016063;28;19925;-91
2023/06/23 04:06:34;;;;;;;;;;;16.10;99.90;;;;;;5014060;28;19935;-92
2023/06/23 04:09:01;;;;;;;;;;;16.10;99.90;;;;;;5009714;28;20165;-91
2023/06/23 04:11:27;;;;;;;;;;;16.10;99.90;;;;;;4999540;28;20028;-92
2023/06/23 04:13:55;;;;;;;;;;;16.10;99.90;;;;;;4997865;28;19968;-91
2023/06/23 04:16:21;;;;;;;;;;;16.10;99.90;;;;;;5014438;28;19925;-92
2023/06/23 04:18:48;;;;;;;;;;;16.10;99.90;;;;;;5013377;28;19965;-90
2023/06/23 04:21:15;;;;;;;;;;;16.10;99.90;;;;;;4998027;28;20006;-92
2023/06/23 04:23:42;;;;;;;;;;;16.10;99.90;;;;;;4998310;28;19929;-92
2023/06/23 04:26:08;;;;;;;;;;;16.10;99.90;;;;;;5014927;28;20296;-91
2023/06/23 04:28:35;;;;;;;;;;;16.20;99.90;;;;;;5015724;28;19929;-91
2023/06/23 04:31:03;;;;;;;;;;;16.20;99.90;;;;;;5018328;28;20315;-91
2023/06/23 04:33:29;;;;;;;;;;;16.20;99.90;;;;;;5001603;28;19996;-92
2023/06/23 04:35:58;;;;;;;;;;;16.20;99.90;;;;;;5015846;28;19957;-92
2023/06/23 04:38:24;;;;;;;;;;;16.30;99.90;;;;;;5019291;28;19925;-90
2023/06/23 04:40:54;;;;;;;;;;;16.30;99.90;;;;;;5017893;28;20386;-91
2023/06/23 04:43:40;;;;;;;;;;;16.30;99.90;;;;;;5003380;28;20473;-91
2023/06/23 04:46:13;;;;;;;;;;;16.40;99.90;;;;;;5019019;28;19934;-91
2023/06/23 04:48:41;;;;;;;;;;;16.40;99.90;;;;;;5035002;28;19925;-93
2023/06/23 04:51:07;;;;;;;;;;;16.50;99.90;;;;;;5022751;28;19980;-93
2023/06/23 04:53:37;;;;;;;;;;;16.50;99.90;;;;;;5004424;28;19983;-92
2023/06/23 04:56:04;;;;;;;;;;;16.50;99.90;;;;;;5018496;28;19996;-92
2023/06/23 04:58:33;;;;;;;;;;;16.60;99.90;;;;;;5016393;28;19997;-92
2023/06/23 05:00:59;;;;;;;;;;;16.60;99.90;;;;;;5003219;28;20020;-90
2023/06/23 05:03:26;;;;;;;;;;;16.60;99.90;;;;;;5020340;28;19936;-92
2023/06/23 05:05:54;;;;;;;;;;;16.70;99.90;;;;;;5016095;28;19933;-91
2023/06/23 05:08:20;;;;;;;;;;;16.70;99.90;;;;;;5019470;28;20586;-92
2023/06/23 05:10:46;;;;;;;;;;;16.70;99.90;;;;;;5006245;28;19925;-91
2023/06/23 05:13:14;;;;;;;;;;;16.70;99.90;;;;;;5023425;28;19929;-92
2023/06/23 05:15:40;;;;;;;;;;;16.80;99.90;;;;;;5005519;28;19932;-91
2023/06/23 05:18:07;;;;;;;;;;;16.90;99.90;;;;;;5016390;28;19925;-91
2023/06/23 05:20:34;;;;;;;;;;;16.90;99.90;;;;;;4988038;28;19929;-92
2023/06/23 05:23:02;;;;;;;;;;;16.90;99.90;;;;;;5016267;28;19926;-92
2023/06/23 05:25:30;;;;;;;;;;;17.00;99.90;;;;;;5015318;28;19929;-93
2023/06/23 05:28:00;;;;;;;;;;;17.10;99.90;;;;;;4987541;28;19992;-94
2023/06/23 05:30:27;;;;;;;;;;;17.20;99.90;;;;;;5006995;28;19936;-92
2023/06/23 05:32:53;;;;;;;;;;;17.30;99.90;;;;;;5024882;28;19929;-91
2023/06/23 05:35:20;;;;;;;;;;;17.40;99.90;;;;;;5012654;28;19926;-92
2023/06/23 05:37:46;;;;;;;;;;;17.80;99.90;;;;;;4980368;28;19961;-92
2023/06/23 05:40:12;;;;;;;;;;;18.30;99.90;;;;;;4997113;28;20276;-91
2023/06/23 05:42:39;;;;;;;;;;;18.60;99.90;;;;;;4983335;28;19968;-90
2023/06/23 05:45:05;;;;;;;;;;;18.70;99.90;;;;;;4981289;28;19926;-91
2023/06/23 05:47:34;;;;;;;;;;;18.70;99.90;;;;;;4967356;28;19984;-91
2023/06/23 05:50:01;;;;;;;;;;;18.90;99.90;;;;;;4995524;28;19934;-91
2023/06/23 05:52:28;;;;;;;;;;;19.30;99.90;;;;;;4997618;28;19934;-92
2023/06/23 05:54:54;;;;;;;;;;;19.90;99.90;;;;;;4996395;28;19929;-92
2023/06/23 05:57:25;;;;;;;;;;;20.50;99.90;;;;;;4998519;28;19933;-92
2023/06/23 05:59:58;;;;;;;;;;;21.00;99.90;;;;;;4980421;28;19967;-93
2023/06/23 06:02:24;;;;;;;;;;;21.40;99.90;;;;;;4980632;28;19930;-93
2023/06/23 06:04:54;;;;;;;;;;;21.90;99.90;;;;;;4976534;28;19949;-92
2023/06/23 06:07:20;;;;;;;;;;;22.20;99.90;;;;;;4977417;28;19930;-92
2023/06/23 06:09:46;;;;;;;;;;;22.50;99.90;;;;;;4976531;28;19937;-91
2023/06/23 06:12:12;;;;;;;;;;;22.70;99.90;;;;;;4961066;28;19926;-92
2023/06/23 06:14:38;;;;;;;;;;;22.90;99.90;;;;;;4989754;28;19930;-93
2023/06/23 06:17:06;;;;;;;;;;;23.20;99.90;;;;;;4993375;28;20025;-90
2023/06/23 06:19:31;;;;;;;;;;;23.30;99.90;;;;;;4975831;28;19926;-91
2023/06/23 06:21:58;;;;;;;;;;;23.60;99.90;;;;;;4961397;28;19968;-88
2023/06/23 06:24:24;;;;;;;;;;;23.60;99.90;;;;;;4977581;28;19934;-90
2023/06/23 06:26:50;;;;;;;;;;;23.90;99.90;;;;;;4976840;28;20225;-90
2023/06/23 06:29:17;;;;;;;;;;;24.10;99.90;;;;;;4974850;28;19930;-89
2023/06/23 06:31:45;;;;;;;;;;;24.20;99.90;;;;;;4974953;28;19976;-89
2023/06/23 06:34:11;;;;;;;;;;;24.30;99.90;;;;;;4977578;28;19926;-90
2023/06/23 06:36:36;;;;;;;;;;;24.50;99.90;;;;;;4993113;28;20404;-90
2023/06/23 06:39:03;;;;;;;;;;;24.60;99.90;;;;;;4978364;28;19930;-90
2023/06/23 06:41:34;;;;;;;;;;;24.70;99.90;;;;;;4978232;28;19947;-89
2023/06/23 06:44:01;;;;;;;;;;;24.70;99.90;;;;;;4975265;28;19926;-92
2023/06/23 06:46:27;;;;;;;;;;;24.80;99.90;;;;;;4994827;28;19930;-91
2023/06/23 06:48:55;;;;;;;;;;;24.70;99.90;;;;;;4963686;28;19930;-90
2023/06/23 06:51:21;;;;;;;;;;;24.70;99.90;;;;;;4984428;28;20297;-91
2023/06/23 06:53:46;;;;;;;;;;;24.70;99.90;;;;;;4981315;28;20016;-91
2023/06/23 06:56:12;;;;;;;;;;;24.80;99.90;;;;;;4980090;28;19993;-92
2023/06/23 06:58:38;;;;;;;;;;;24.80;99.90;;;;;;5005259;28;19933;-89
2023/06/23 07:01:05;;;;;;;;;;;24.80;99.90;;;;;;4992447;28;19925;-95
2023/06/23 07:03:31;;;;;;;;;;;24.90;99.90;;;;;;4980305;28;19969;-89
2023/06/23 07:05:56;;;;;;;;;;;24.90;99.90;;;;;;4980766;28;19926;-92
2023/06/23 07:08:22;;;;;;;;;;;25.00;99.90;;;;;;4968165;28;20626;-90
2023/06/23 07:10:47;;;;;;;;;;;25.10;99.90;;;;;;5000536;28;19925;-89
2023/06/23 07:13:13;;;;;;;;;;;25.20;99.90;;;;;;4968796;28;19934;-89
2023/06/23 07:15:38;;;;;;;;;;;25.30;99.90;;;;;;4968630;28;19925;-87
2023/06/23 07:18:04;;;;;;;;;;;25.40;99.90;;;;;;4966576;28;20301;-88
2023/06/23 07:20:30;;;;;;;;;;;25.50;99.90;;;;;;4968727;28;19925;-88
2023/06/23 07:22:56;;;;;;;;;;;25.70;99.90;;;;;;5000001;28;19968;-88
2023/06/23 07:25:21;;;;;;;;;;;25.80;99.90;;;;;;4985278;28;19933;-89
2023/06/23 07:27:48;;;;;;;;;;;25.90;99.90;;;;;;4982549;28;19926;-89
2023/06/23 07:30:14;;;;;;;;;;;26.10;99.90;;;;;;4985113;28;19945;-88
2023/06/23 07:32:40;;;;;;;;;;;26.10;99.90;;;;;;4976879;28;19926;-88
2023/06/23 07:35:06;;;;;;;;;;;26.20;99.90;;;;;;4988765;28;19926;-88
2023/06/23 07:37:31;;;;;;;;;;;26.30;99.90;;;;;;5014461;28;19925;-88
2023/06/23 07:39:57;;;;;;;;;;;26.30;99.90;;;;;;5010883;28;19933;-88
2023/06/23 07:42:23;;;;;;;;;;;26.30;99.90;;;;;;5020857;28;19961;-88
2023/06/23 07:44:49;;;;;;;;;;;26.40;99.90;;;;;;4986629;28;19933;-88
2023/06/23 07:47:15;;;;;;;;;;;26.50;99.90;;;;;;4970831;28;19926;-89
2023/06/23 07:49:40;;;;;;;;;;;26.60;99.90;;;;;;4961807;28;20085;-88
2023/06/23 07:52:06;;;;;;;;;;;26.70;99.70;;;;;;4977222;28;19926;-90
2023/06/23 07:54:32;;;;;;;;;;;26.70;98.10;;;;;;4978763;28;19941;-86
2023/06/23 07:56:58;;;;;;;;;;;26.70;99.90;;;;;;4963028;28;20060;-91
2023/06/23 07:59:25;;;;;;;;;;;26.70;99.90;;;;;;5004596;28;19929;-90
2023/06/23 08:01:51;;;;;;;;;;;26.60;98.40;;;;;;4987112;28;20367;-91
2023/06/23 08:04:16;;;;;;;;;;;26.60;99.90;;;;;;4998711;28;19926;-89
2023/06/23 08:06:42;;;;;;;;;;;26.60;99.90;;;;;;4965243;28;19926;-90
2023/06/23 08:09:07;;;;;;;;;;;26.50;99.80;;;;;;4956523;28;20289;-90
2023/06/23 08:11:33;;;;;;;;;;;26.50;99.50;;;;;;4971112;28;19976;-90
2023/06/23 08:14:01;;;;;;;;;;;26.70;99.90;;;;;;4963300;28;19930;-91
2023/06/23 08:16:27;;;;;;;;;;;26.70;99.90;;;;;;4991624;28;19957;-91
2023/06/23 08:18:53;;;;;;;;;;;26.90;99.90;;;;;;4982452;28;19975;-90
2023/06/23 08:21:19;;;;;;;;;;;27.00;99.90;;;;;;4998287;28;19996;-86
2023/06/23 08:23:45;;;;;;;;;;;26.80;94.60;;;;;;4999972;28;19929;-83
2023/06/23 08:26:10;;;;;;;;;;;26.80;93.20;;;;;;4998761;28;19948;-91
2023/06/23 08:28:36;;;;;;;;;;;26.80;96.50;;;;;;5005977;28;19948;-88
2023/06/23 08:31:02;;;;;;;;;;;26.90;94.40;;;;;;4993492;28;20009;-93
2023/06/23 08:33:27;;;;;;;;;;;27.00;94.40;;;;;;5006798;28;19997;-90
2023/06/23 08:35:53;;;;;;;;;;;27.00;93.90;;;;;;4989701;28;19929;-91
2023/06/23 08:38:19;;;;;;;;;;;27.00;91.50;;;;;;4987357;28;19926;-90
2023/06/23 08:40:46;;;;;;;;;;;27.00;93.10;;;;;;5001972;28;20337;-89
2023/06/23 08:43:12;;;;;;;;;;;27.10;98.00;;;;;;5004175;28;20004;-90
2023/06/23 08:45:40;;;;;;;;;;;27.20;93.90;;;;;;4986129;28;19954;-90
2023/06/23 08:48:06;;;;;;;;;;;27.20;87.60;;;;;;4974937;28;19985;-92
2023/06/23 08:50:32;;;;;;;;;;;27.20;93.20;;;;;;4979919;28;19996;-88
2023/06/23 08:52:59;;;;;;;;;;;27.20;94.20;;;;;;4978579;28;19936;-88
2023/06/23 08:55:25;;;;;;;;;;;27.10;91.50;;;;;;4963854;28;20398;-90
2023/06/23 08:57:51;;;;;;;;;;;27.20;88.20;;;;;;4993488;28;19929;-91
2023/06/23 09:00:17;;;;;;;;;;;27.20;95.80;;;;;;4997452;28;19925;-91
2023/06/23 09:02:42;;;;;;;;;;;27.20;99.60;;;;;;5001300;28;20024;-89
2023/06/23 09:05:08;;;;;;;;;;;27.30;99.70;;;;;;5002081;28;19922;-92
2023/06/23 09:07:34;;;;;;;;;;;27.40;99.90;;;;;;4998164;28;19925;-90
2023/06/23 09:10:00;;;;;;;;;;;27.50;97.60;;;;;;4996360;28;19926;-91
2023/06/23 09:12:26;;;;;;;;;;;27.60;94.70;;;;;;4997059;28;20077;-89
2023/06/23 09:14:52;;;;;;;;;;;27.70;98.10;;;;;;4979708;28;19926;-90
2023/06/23 09:17:18;;;;;;;;;;;27.70;93.30;;;;;;4979702;28;19934;-89
2023/06/23 09:19:45;;;;;;;;;;;27.80;99.90;;;;;;5012437;28;19980;-89
2023/06/23 09:22:12;;;;;;;;;;;27.70;90.30;;;;;;4966281;28;19980;-91
2023/06/23 09:24:43;;;;;;;;;;;27.80;94.40;;;;;;4997658;28;19926;-89
2023/06/23 09:27:09;;;;;;;;;;;27.90;93.60;;;;;;4979946;28;19984;-88
2023/06/23 09:29:37;;;;;;;;;;;27.90;88.40;;;;;;4983285;28;19937;-90
2023/06/23 09:32:03;;;;;;;;;;;28.00;93.90;;;;;;4993159;28;19925;-89
2023/06/23 09:34:30;;;;;;;;;;;28.00;91.20;;;;;;4997871;28;19945;-89
2023/06/23 09:37:09;;;;;;;;;;;28.00;91.20;;;;;;4994675;28;19985;-90
2023/06/23 09:39:39;;;;;;;;;;;28.00;89.60;;;;;;4993155;28;19926;-90
2023/06/23 09:42:06;;;;;;;;;;;28.00;94.30;;;;;;4982993;28;19930;-87
2023/06/23 09:44:35;;;;;;;;;;;28.00;89.50;;;;;;5001481;28;19980;-87
2023/06/23 09:47:02;;;;;;;;;;;28.00;84.80;;;;;;5003066;28;19926;-86
2023/06/23 09:49:27;;;;;;;;;;;28.00;85.90;;;;;;4985543;28;19949;-86
2023/06/23 09:51:54;;;;;;;;;;;28.00;83.10;;;;;;4984948;28;19930;-85
2023/06/23 09:54:39;;;;;;;;;;;28.20;91.30;;;;;;4999682;28;19936;-86
2023/06/23 09:57:06;;;;;;;;;;;28.20;94.70;;;;;;4995507;28;19926;-85
2023/06/23 09:59:32;;;;;;;;;;;28.20;85.30;;;;;;4996305;28;19964;-85
2023/06/23 10:01:57;;;;;;;;;;;28.10;76.80;;;;;;4970469;28;19930;-83
2023/06/23 10:04:29;;;;;;;;;;;28.10;72.10;;;;;;4991928;28;20676;-83
2023/06/23 10:06:55;;;;;;;;;;;28.10;72.80;;;;;;4980716;28;19984;-84
2023/06/23 10:09:25;;;;;;;;;;;28.20;85.30;;;;;;4996577;28;19933;-84
2023/06/23 10:11:51;;;;;;;;;;;28.30;80.60;;;;;;4986442;28;19936;-83
2023/06/23 10:14:18;;;;;;;;;;;28.50;80.10;;;;;;4999802;28;19926;-84
2023/06/23 10:16:44;;;;;;;;;;;28.50;95.50;;;;;;4997535;28;19984;-85
2023/06/23 10:19:10;;;;;;;;;;;28.60;85.90;;;;;;4997716;28;19934;-84
2023/06/23 10:21:36;;;;;;;;;;;28.60;81.60;;;;;;5000992;28;20370;-85
2023/06/23 10:24:06;;;;;;;;;;;28.70;88.40;;;;;;4984223;28;19989;-84
2023/06/23 10:26:33;;;;;;;;;;;28.70;92.30;;;;;;4997992;28;19925;-84
2023/06/23 10:29:01;;;;;;;;;;;28.90;92.70;;;;;;4996033;28;19937;-84
2023/06/23 10:31:31;;;;;;;;;;;28.90;85.10;;;;;;4998051;28;19929;-83
2023/06/23 10:34:01;;;;;;;;;;;28.90;82.10;;;;;;4983578;28;19926;-82
2023/06/23 10:36:29;;;;;;;;;;;29.00;89.40;;;;;;5011745;28;19929;-83
2023/06/23 10:38:56;;;;;;;;;;;29.00;82.90;;;;;;5014350;28;20445;-84
2023/06/23 10:41:23;;;;;;;;;;;29.00;87.30;;;;;;5001121;28;19994;-83
2023/06/23 10:43:51;;;;;;;;;;;29.00;78.80;;;;;;5015928;28;20503;-82
2023/06/23 10:46:16;;;;;;;;;;;29.10;78.60;;;;;;4999472;28;19926;-84
2023/06/23 10:48:43;;;;;;;;;;;28.90;79.00;;;;;;5011988;28;19932;-83
2023/06/23 10:51:09;;;;;;;;;;;28.80;81.90;;;;;;5016703;28;19932;-84
2023/06/23 10:53:42;;;;;;;;;;;28.40;74.30;;;;;;4980878;28;19936;-84
2023/06/23 10:56:08;;;;;;;;;;;28.30;79.60;;;;;;5016792;28;20402;-84
2023/06/23 10:58:48;;;;;;;;;;;28.40;90.90;;;;;;4972401;28;19932;-84
2023/06/23 11:01:13;;;;;;;;;;;28.50;91.50;;;;;;4999945;28;19933;-83
2023/06/23 11:03:39;;;;;;;;;;;28.30;91.90;;;;;;5003078;28;19985;-83
2023/06/23 11:06:09;;;;;;;;;;;28.10;83.30;;;;;;5014671;28;19929;-83
2023/06/23 11:08:44;;;;;;;;;;;28.00;81.40;;;;;;4989861;28;20427;-83
2023/06/23 11:11:10;;;;;;;;;;;27.90;79.90;;;;;;5018932;28;19985;-82
2023/06/23 11:13:38;;;;;;;;;;;28.00;76.00;;;;;;5012647;28;20380;-83
2023/06/23 11:16:04;;;;;;;;;;;28.00;80.80;;;;;;5014493;28;19929;-83
2023/06/23 11:18:30;;;;;;;;;;;27.90;76.50;;;;;;5015558;28;19932;-82
2023/06/23 11:21:13;;;;;;;;;;;28.00;80.40;;;;;;5018277;28;19985;-83
2023/06/23 11:23:59;;;;;;;;;;;28.10;83.70;;;;;;5018303;28;19931;-83
2023/06/23 11:26:29;;;;;;;;;;;28.30;83.80;;;;;;5018019;28;19932;-82
2023/06/23 11:28:55;;;;;;;;;;;28.70;83.00;;;;;;5021966;28;19937;-82
2023/06/23 11:31:26;;;;;;;;;;;28.80;70.50;;;;;;5001861;28;19979;-85
2023/06/23 11:33:54;;;;;;;;;;;28.80;73.00;;;;;;4989337;28;19926;-82
2023/06/23 11:36:20;;;;;;;;;;;28.80;70.10;;;;;;5000607;28;20344;-83
2023/06/23 11:38:46;;;;;;;;;;;28.80;67.80;;;;;;4979421;28;19985;-83
2023/06/23 11:41:12;;;;;;;;;;;28.70;75.50;;;;;;4981561;28;19930;-83
2023/06/23 11:43:38;;;;;;;;;;;28.70;70.20;;;;;;4991576;28;19972;-83
2023/06/23 11:46:06;;;;;;;;;;;28.70;72.60;;;;;;4998774;28;19934;-83
2023/06/23 11:48:36;;;;;;;;;;;28.60;79.50;;;;;;4995002;28;21560;-84
2023/06/23 11:51:02;;;;;;;;;;;28.70;72.80;;;;;;5000757;28;19989;-82
2023/06/23 11:53:27;;;;;;;;;;;28.70;68.50;;;;;;4997894;28;19964;-82
2023/06/23 11:55:54;;;;;;;;;;;28.70;74.00;;;;;;5003546;28;19930;-82
2023/06/23 11:58:19;;;;;;;;;;;28.70;70.80;;;;;;5000748;28;19992;-82
2023/06/23 12:00:45;;;;;;;;;;;28.60;69.80;;;;;;5002036;28;19921;-82
2023/06/23 12:03:11;;;;;;;;;;;28.60;79.40;;;;;;4985782;28;19936;-83
2023/06/23 12:05:37;;;;;;;;;;;28.70;69.10;;;;;;4987135;28;20381;-84
2023/06/23 12:08:04;;;;;;;;;;;28.80;74.40;;;;;;4984600;28;19932;-88
2023/06/23 12:10:34;;;;;;;;;;;28.80;77.70;;;;;;4964868;28;19930;-86
2023/06/23 12:12:59;;;;;;;;;;;28.90;70.00;;;;;;4995857;28;19930;-87
2023/06/23 12:15:26;;;;;;;;;;;28.80;71.80;;;;;;4997245;28;19926;-83
2023/06/23 12:17:55;;;;;;;;;;;28.80;72.40;;;;;;4984084;28;20017;-84
2023/06/23 12:20:21;;;;;;;;;;;28.70;64.90;;;;;;5001893;28;19929;-83
2023/06/23 12:22:48;;;;;;;;;;;28.70;74.20;;;;;;4998231;28;19976;-82
2023/06/23 12:25:14;;;;;;;;;;;28.70;72.10;;;;;;5001665;28;19965;-83
2023/06/23 12:27:39;;;;;;;;;;;28.80;66.50;;;;;;5001314;28;20021;-84
2023/06/23 12:30:15;;;;;;;;;;;28.80;68.10;;;;;;5005618;28;19926;-84
2023/06/23 12:32:40;;;;;;;;;;;28.70;74.00;;;;;;5005310;28;19933;-85
2023/06/23 12:35:08;;;;;;;;;;;28.70;71.00;;;;;;5004844;28;19925;-83
2023/06/23 12:37:47;;;;;;;;;;;28.70;72.90;;;;;;5023555;28;19930;-83
2023/06/23 12:40:32;;;;;;;;;;;28.60;63.20;;;;;;5022263;28;19973;-83
2023/06/23 12:42:58;;;;;;;;;;;28.60;67.80;;;;;;5017891;28;19940;-84
2023/06/23 12:45:24;;;;;;;;;;;28.60;61.70;;;;;;5001319;28;19933;-82
2023/06/23 12:47:51;;;;;;;;;;;28.70;60.50;;;;;;5020360;28;19992;-82
2023/06/23 12:50:24;;;;;;;;;;;28.80;66.40;;;;;;5005209;28;19948;-83
2023/06/23 12:52:50;;;;;;;;;;;28.80;63.90;;;;;;5000663;28;19925;-85
2023/06/23 12:55:16;;;;;;;;;;;28.80;62.30;;;;;;5020506;28;20012;-83
2023/06/23 12:57:44;;;;;;;;;;;28.80;61.40;;;;;;5001851;28;19926;-86
2023/06/23 13:00:11;;;;;;;;;;;28.80;62.50;;;;;;5005912;28;19929;-81
2023/06/23 13:02:36;;;;;;;;;;;28.80;60.30;;;;;;5018647;28;19965;-82
2023/06/23 13:05:02;;;;;;;;;;;28.80;64.90;;;;;;5003943;28;19948;-84
2023/06/23 13:07:28;;;;;;;;;;;28.60;62.50;;;;;;5003132;28;20019;-81
2023/06/23 13:09:53;;;;;;;;;;;28.50;67.30;;;;;;5005198;28;20026;-81
2023/06/23 13:12:19;;;;;;;;;;;28.70;67.10;;;;;;4988873;28;19933;-82
2023/06/23 13:14:44;;;;;;;;;;;28.60;61.90;;;;;;4997095;28;19935;-82
2023/06/23 13:17:10;;;;;;;;;;;28.30;61.50;;;;;;5018815;28;20027;-83
2023/06/23 13:19:36;;;;;;;;;;;28.10;62.20;;;;;;5019375;28;20413;-82
2023/06/23 13:22:02;;;;;;;;;;;27.90;64.10;;;;;;5017365;28;19929;-82
2023/06/23 13:24:27;;;;;;;;;;;27.80;65.60;;;;;;5018717;28;19925;-82
2023/06/23 13:26:53;;;;;;;;;;;27.80;65.90;;;;;;5005049;28;19940;-82
2023/06/23 13:29:18;;;;;;;;;;;27.90;67.30;;;;;;5021233;28;19972;-82
2023/06/23 13:31:44;;;;;;;;;;;27.80;63.40;;;;;;5021795;28;19925;-83
2023/06/23 13:34:10;;;;;;;;;;;27.90;65.20;;;;;;5003818;28;19925;-83
2023/06/23 13:36:36;;;;;;;;;;;27.90;62.40;;;;;;4984412;28;19934;-83
2023/06/23 13:39:03;;;;;;;;;;;27.90;62.50;;;;;;4999612;28;19984;-81
2023/06/23 13:41:28;;;;;;;;;;;27.80;61.70;;;;;;4983080;28;19926;-82
2023/06/23 13:43:54;;;;;;;;;;;27.70;62.90;;;;;;4999211;28;20437;-82
2023/06/23 13:46:19;;;;;;;;;;;27.70;62.20;;;;;;4999409;28;19929;-82
2023/06/23 13:48:45;;;;;;;;;;;27.80;66.20;;;;;;4978458;28;19973;-83
2023/06/23 13:51:11;;;;;;;;;;;27.80;62.60;;;;;;4963118;28;20295;-83
2023/06/23 13:53:39;;;;;;;;;;;27.80;66.50;;;;;;4981824;28;19932;-84
2023/06/23 13:56:05;;;;;;;;;;;27.90;66.00;;;;;;4996527;28;19926;-83
2023/06/23 13:58:30;;;;;;;;;;;27.90;63.90;;;;;;4997642;28;20020;-82
2023/06/23 14:00:56;;;;;;;;;;;27.90;63.30;;;;;;4965449;28;19930;-82
2023/06/23 14:03:21;;;;;;;;;;;28.00;64.50;;;;;;4967350;28;19949;-81
2023/06/23 14:05:47;;;;;;;;;;;28.10;63.20;;;;;;4982131;28;19972;-83
2023/06/23 14:08:13;;;;;;;;;;;28.00;64.00;;;;;;4980277;28;19933;-84
2023/06/23 14:10:38;;;;;;;;;;;28.00;63.00;;;;;;4976895;28;20009;-85
2023/06/23 14:13:04;;;;;;;;;;;27.90;63.00;;;;;;4993575;28;19936;-85
2023/06/23 14:15:29;;;;;;;;;;;27.70;61.70;;;;;;4981746;28;19926;-83